sensor_id;sensor_type;location;lat;lon;timestamp;temperature;humidity
9329;DHT22;4703;48.748;19.142;2023-09-07T00:02:13;16.40;99.90
9329;DHT22;4703;48.748;19.142;2023-09-07T00:04:40;16.30;99.90
9329;DHT22;4703;48.748;19.142;2023-09-07T00:07:07;16.30;99.90
9329;DHT22;4703;48.748;19.142;2023-09-07T00:09:34;16.40;99.90
9329;DHT22;4703;48.748;19.142;2023-09-07T00:12:01;16.80;99.90
9329;DHT22;4703;48.748;19.142;2023-09-07T00:14:28;16.20;99.90
9329;DHT22;4703;48.748;19.142;2023-09-07T00:16:55;16.40;99.90
9329;DHT22;4703;48.748;19.142;2023-09-07T00:19:24;16.20;99.90
9329;DHT22;4703;48.748;19.142;2023-09-07T00:21:51;16.20;99.90
9329;DHT22;4703;48.748;19.142;2023-09-07T00:24:18;16.20;99.90
9329;DHT22;4703;48.748;19.142;2023-09-07T00:26:45;16.60;99.90
9329;DHT22;4703;48.748;19.142;2023-09-07T00:29:12;16.20;99.90
9329;DHT22;4703;48.748;19.142;2023-09-07T00:31:39;16.20;99.90
9329;DHT22;4703;48.748;19.142;2023-09-07T00:34:08;16.40;99.90
9329;DHT22;4703;48.748;19.142;2023-09-07T00:36:35;16.60;99.90
9329;DHT22;4703;48.748;19.142;2023-09-07T00:39:03;16.30;99.90
9329;DHT22;4703;48.748;19.142;2023-09-07T00:41:30;16.10;99.90
9329;DHT22;4703;48.748;19.142;2023-09-07T00:43:57;16.00;99.90
9329;DHT22;4703;48.748;19.142;2023-09-07T00:46:24;16.00;99.90
9329;DHT22;4703;48.748;19.142;2023-09-07T00:48:51;15.90;99.90
9329;DHT22;4703;48.748;19.142;2023-09-07T00:51:18;16.30;99.90
9329;DHT22;4703;48.748;19.142;2023-09-07T00:53:45;16.40;99.90
9329;DHT22;4703;48.748;19.142;2023-09-07T00:56:15;16.00;99.90
9329;DHT22;4703;48.748;19.142;2023-09-07T00:58:43;15.90;99.90
9329;DHT22;4703;48.748;19.142;2023-09-07T01:01:10;15.80;99.90
9329;DHT22;4703;48.748;19.142;2023-09-07T01:03:37;18.60;99.90
9329;DHT22;4703;48.748;19.142;2023-09-07T01:06:14;15.80;99.90
9329;DHT22;4703;48.748;19.142;2023-09-07T01:08:46;15.70;99.90
9329;DHT22;4703;48.748;19.142;2023-09-07T01:11:19;15.70;99.90
9329;DHT22;4703;48.748;19.142;2023-09-07T01:13:53;15.70;99.90
9329;DHT22;4703;48.748;19.142;2023-09-07T01:16:22;15.70;99.90
9329;DHT22;4703;48.748;19.142;2023-09-07T01:18:51;16.40;99.90
9329;DHT22;4703;48.748;19.142;2023-09-07T01:21:19;16.10;99.90
9329;DHT22;4703;48.748;19.142;2023-09-07T01:23:46;15.70;99.90
9329;DHT22;4703;48.748;19.142;2023-09-07T01:26:16;15.60;99.90
9329;DHT22;4703;48.748;19.142;2023-09-07T01:28:43;15.50;99.90
9329;DHT22;4703;48.748;19.142;2023-09-07T01:31:10;15.60;99.90
9329;DHT22;4703;48.748;19.142;2023-09-07T01:33:38;15.40;99.90
9329;DHT22;4703;48.748;19.142;2023-09-07T01:36:05;15.90;99.90
9329;DHT22;4703;48.748;19.142;2023-09-07T01:38:32;15.40;99.90
9329;DHT22;4703;48.748;19.142;2023-09-07T01:41:00;15.50;99.90
9329;DHT22;4703;48.748;19.142;2023-09-07T01:43:27;15.70;99.90
9329;DHT22;4703;48.748;19.142;2023-09-07T01:45:54;16.80;99.90
9329;DHT22;4703;48.748;19.142;2023-09-07T01:48:21;16.10;99.90
9329;DHT22;4703;48.748;19.142;2023-09-07T01:50:52;15.90;99.90
9329;DHT22;4703;48.748;19.142;2023-09-07T01:53:20;15.40;99.90
9329;DHT22;4703;48.748;19.142;2023-09-07T01:55:47;15.40;99.90
9329;DHT22;4703;48.748;19.142;2023-09-07T01:58:14;15.20;99.90
9329;DHT22;4703;48.748;19.142;2023-09-07T02:00:41;15.50;99.90
9329;DHT22;4703;48.748;19.142;2023-09-07T02:03:08;15.40;99.90
9329;DHT22;4703;48.748;19.142;2023-09-07T02:05:37;15.70;99.90
9329;DHT22;4703;48.748;19.142;2023-09-07T02:08:05;15.50;99.90
9329;DHT22;4703;48.748;19.142;2023-09-07T02:10:33;16.00;99.90
9329;DHT22;4703;48.748;19.142;2023-09-07T02:13:00;15.10;99.90
9329;DHT22;4703;48.748;19.142;2023-09-07T02:15:27;15.00;99.90
9329;DHT22;4703;48.748;19.142;2023-09-07T02:17:54;15.00;99.90
9329;DHT22;4703;48.748;19.142;2023-09-07T02:20:23;15.00;99.90
9329;DHT22;4703;48.748;19.142;2023-09-07T02:22:50;15.60;99.90
9329;DHT22;4703;48.748;19.142;2023-09-07T02:25:17;15.20;99.90
9329;DHT22;4703;48.748;19.142;2023-09-07T02:27:44;14.90;99.90
9329;DHT22;4703;48.748;19.142;2023-09-07T02:30:11;15.50;99.90
9329;DHT22;4703;48.748;19.142;2023-09-07T02:32:40;14.90;99.90
9329;DHT22;4703;48.748;19.142;2023-09-07T02:35:09;15.40;99.90
9329;DHT22;4703;48.748;19.142;2023-09-07T02:37:36;15.00;99.90
9329;DHT22;4703;48.748;19.142;2023-09-07T02:40:03;14.80;99.90
9329;DHT22;4703;48.748;19.142;2023-09-07T02:42:42;14.80;99.90
9329;DHT22;4703;48.748;19.142;2023-09-07T02:45:14;14.90;99.90
9329;DHT22;4703;48.748;19.142;2023-09-07T02:47:41;14.80;99.90
9329;DHT22;4703;48.748;19.142;2023-09-07T02:50:08;14.80;99.90
9329;DHT22;4703;48.748;19.142;2023-09-07T02:52:35;14.80;99.90
9329;DHT22;4703;48.748;19.142;2023-09-07T02:55:02;14.70;99.90
9329;DHT22;4703;48.748;19.142;2023-09-07T02:57:30;14.70;99.90
9329;DHT22;4703;48.748;19.142;2023-09-07T02:59:57;14.70;99.90
9329;DHT22;4703;48.748;19.142;2023-09-07T03:02:24;14.80;99.90
9329;DHT22;4703;48.748;19.142;2023-09-07T03:04:55;15.10;99.90
9329;DHT22;4703;48.748;19.142;2023-09-07T03:07:25;15.30;99.90
9329;DHT22;4703;48.748;19.142;2023-09-07T03:09:52;14.60;99.90
9329;DHT22;4703;48.748;19.142;2023-09-07T03:12:19;14.50;99.90
9329;DHT22;4703;48.748;19.142;2023-09-07T03:14:47;14.50;99.90
9329;DHT22;4703;48.748;19.142;2023-09-07T03:17:15;14.90;99.90
9329;DHT22;4703;48.748;19.142;2023-09-07T03:19:43;15.50;99.90
9329;DHT22;4703;48.748;19.142;2023-09-07T03:22:10;15.40;99.90
9329;DHT22;4703;48.748;19.142;2023-09-07T03:24:37;14.40;99.90
9329;DHT22;4703;48.748;19.142;2023-09-07T03:27:05;14.40;99.90
9329;DHT22;4703;48.748;19.142;2023-09-07T03:29:34;15.30;99.90
9329;DHT22;4703;48.748;19.142;2023-09-07T03:32:02;15.20;99.90
9329;DHT22;4703;48.748;19.142;2023-09-07T03:34:30;14.30;99.90
9329;DHT22;4703;48.748;19.142;2023-09-07T03:36:57;15.50;99.90
9329;DHT22;4703;48.748;19.142;2023-09-07T03:39:24;14.20;99.90
9329;DHT22;4703;48.748;19.142;2023-09-07T03:41:51;14.20;99.90
9329;DHT22;4703;48.748;19.142;2023-09-07T03:44:18;14.60;99.90
9329;DHT22;4703;48.748;19.142;2023-09-07T03:46:45;14.20;99.90
9329;DHT22;4703;48.748;19.142;2023-09-07T03:49:12;14.80;99.90
9329;DHT22;4703;48.748;19.142;2023-09-07T03:51:39;14.10;99.90
9329;DHT22;4703;48.748;19.142;2023-09-07T03:54:06;14.40;99.90
9329;DHT22;4703;48.748;19.142;2023-09-07T03:56:33;14.50;99.90
9329;DHT22;4703;48.748;19.142;2023-09-07T03:59:00;14.10;99.90
9329;DHT22;4703;48.748;19.142;2023-09-07T04:01:27;14.40;99.90
9329;DHT22;4703;48.748;19.142;2023-09-07T04:03:55;14.90;99.90
9329;DHT22;4703;48.748;19.142;2023-09-07T04:06:22;14.70;99.90
9329;DHT22;4703;48.748;19.142;2023-09-07T04:08:50;14.50;99.90
9329;DHT22;4703;48.748;19.142;2023-09-07T04:11:17;15.10;99.90
9329;DHT22;4703;48.748;19.142;2023-09-07T04:13:44;14.00;99.90
9329;DHT22;4703;48.748;19.142;2023-09-07T04:16:11;14.10;99.90
9329;DHT22;4703;48.748;19.142;2023-09-07T04:18:38;14.00;99.90
9329;DHT22;4703;48.748;19.142;2023-09-07T04:21:08;14.50;99.90
9329;DHT22;4703;48.748;19.142;2023-09-07T04:23:35;13.90;99.90
9329;DHT22;4703;48.748;19.142;2023-09-07T04:26:09;14.50;99.90
9329;DHT22;4703;48.748;19.142;2023-09-07T04:28:38;13.90;99.90
9329;DHT22;4703;48.748;19.142;2023-09-07T04:31:05;14.90;99.90
9329;DHT22;4703;48.748;19.142;2023-09-07T04:33:33;13.90;99.90
9329;DHT22;4703;48.748;19.142;2023-09-07T04:36:13;14.90;99.90
9329;DHT22;4703;48.748;19.142;2023-09-07T04:38:41;13.90;99.90
9329;DHT22;4703;48.748;19.142;2023-09-07T04:41:09;15.90;99.90
9329;DHT22;4703;48.748;19.142;2023-09-07T04:43:41;14.50;99.90
9329;DHT22;4703;48.748;19.142;2023-09-07T04:46:12;14.00;99.90
9329;DHT22;4703;48.748;19.142;2023-09-07T04:48:40;13.80;99.90
9329;DHT22;4703;48.748;19.142;2023-09-07T04:51:09;15.20;99.90
9329;DHT22;4703;48.748;19.142;2023-09-07T04:53:39;14.70;99.90
9329;DHT22;4703;48.748;19.142;2023-09-07T04:56:07;15.00;99.90
9329;DHT22;4703;48.748;19.142;2023-09-07T04:58:35;13.90;99.90
9329;DHT22;4703;48.748;19.142;2023-09-07T05:01:06;13.90;99.90
9329;DHT22;4703;48.748;19.142;2023-09-07T05:03:36;14.00;99.90
9329;DHT22;4703;48.748;19.142;2023-09-07T05:06:04;16.20;99.90
9329;DHT22;4703;48.748;19.142;2023-09-07T05:08:31;13.80;99.90
9329;DHT22;4703;48.748;19.142;2023-09-07T05:11:02;14.50;99.90
9329;DHT22;4703;48.748;19.142;2023-09-07T05:13:30;13.80;99.90
9329;DHT22;4703;48.748;19.142;2023-09-07T05:15:59;14.60;99.90
9329;DHT22;4703;48.748;19.142;2023-09-07T05:18:31;14.70;99.90
9329;DHT22;4703;48.748;19.142;2023-09-07T05:20:59;14.90;99.90
9329;DHT22;4703;48.748;19.142;2023-09-07T05:23:26;15.40;99.90
9329;DHT22;4703;48.748;19.142;2023-09-07T05:25:54;13.90;99.90
9329;DHT22;4703;48.748;19.142;2023-09-07T05:28:22;14.00;99.90
9329;DHT22;4703;48.748;19.142;2023-09-07T05:30:50;14.00;99.90
9329;DHT22;4703;48.748;19.142;2023-09-07T05:33:17;14.80;99.90
9329;DHT22;4703;48.748;19.142;2023-09-07T05:35:45;14.00;99.90
9329;DHT22;4703;48.748;19.142;2023-09-07T05:38:13;14.40;99.90
9329;DHT22;4703;48.748;19.142;2023-09-07T05:40:42;14.10;99.90
9329;DHT22;4703;48.748;19.142;2023-09-07T05:43:11;14.20;99.90
9329;DHT22;4703;48.748;19.142;2023-09-07T05:45:39;15.20;99.90
9329;DHT22;4703;48.748;19.142;2023-09-07T05:48:08;16.20;99.90
9329;DHT22;4703;48.748;19.142;2023-09-07T05:50:37;14.60;99.90
9329;DHT22;4703;48.748;19.142;2023-09-07T05:53:05;14.50;99.90
9329;DHT22;4703;48.748;19.142;2023-09-07T05:55:32;15.20;99.90
9329;DHT22;4703;48.748;19.142;2023-09-07T05:58:03;14.60;99.90
9329;DHT22;4703;48.748;19.142;2023-09-07T06:00:31;15.20;99.90
9329;DHT22;4703;48.748;19.142;2023-09-07T06:02:59;14.60;99.90
9329;DHT22;4703;48.748;19.142;2023-09-07T06:05:26;14.80;99.90
9329;DHT22;4703;48.748;19.142;2023-09-07T06:07:53;15.60;99.90
9329;DHT22;4703;48.748;19.142;2023-09-07T06:10:20;14.80;99.90
9329;DHT22;4703;48.748;19.142;2023-09-07T06:12:47;14.70;99.90
9329;DHT22;4703;48.748;19.142;2023-09-07T06:15:14;14.90;99.90
9329;DHT22;4703;48.748;19.142;2023-09-07T06:17:41;14.80;99.90
9329;DHT22;4703;48.748;19.142;2023-09-07T06:20:09;14.90;99.90
9329;DHT22;4703;48.748;19.142;2023-09-07T06:22:36;14.90;99.90
9329;DHT22;4703;48.748;19.142;2023-09-07T06:25:03;15.10;99.90
9329;DHT22;4703;48.748;19.142;2023-09-07T06:27:30;15.00;99.90
9329;DHT22;4703;48.748;19.142;2023-09-07T06:29:57;15.30;99.90
9329;DHT22;4703;48.748;19.142;2023-09-07T06:32:24;15.20;99.90
9329;DHT22;4703;48.748;19.142;2023-09-07T06:34:51;15.20;99.90
9329;DHT22;4703;48.748;19.142;2023-09-07T06:37:18;15.30;99.90
9329;DHT22;4703;48.748;19.142;2023-09-07T06:39:45;15.30;99.90
9329;DHT22;4703;48.748;19.142;2023-09-07T06:42:12;15.50;99.90
9329;DHT22;4703;48.748;19.142;2023-09-07T06:44:42;15.50;99.90
9329;DHT22;4703;48.748;19.142;2023-09-07T06:47:09;15.50;99.90
9329;DHT22;4703;48.748;19.142;2023-09-07T06:49:39;15.40;99.90
9329;DHT22;4703;48.748;19.142;2023-09-07T06:52:06;15.80;99.90
9329;DHT22;4703;48.748;19.142;2023-09-07T06:54:34;15.60;99.90
9329;DHT22;4703;48.748;19.142;2023-09-07T06:57:01;15.70;99.90
9329;DHT22;4703;48.748;19.142;2023-09-07T06:59:28;15.70;99.90
9329;DHT22;4703;48.748;19.142;2023-09-07T07:01:55;15.80;99.90
9329;DHT22;4703;48.748;19.142;2023-09-07T07:04:22;16.20;99.90
9329;DHT22;4703;48.748;19.142;2023-09-07T07:06:49;15.90;99.90
9329;DHT22;4703;48.748;19.142;2023-09-07T07:09:16;16.00;99.90
9329;DHT22;4703;48.748;19.142;2023-09-07T07:11:43;16.10;99.90
9329;DHT22;4703;48.748;19.142;2023-09-07T07:14:10;16.10;99.90
9329;DHT22;4703;48.748;19.142;2023-09-07T07:16:38;16.20;99.90
9329;DHT22;4703;48.748;19.142;2023-09-07T07:19:05;16.50;99.90
9329;DHT22;4703;48.748;19.142;2023-09-07T07:21:32;16.10;99.90
9329;DHT22;4703;48.748;19.142;2023-09-07T07:23:59;16.20;99.90
9329;DHT22;4703;48.748;19.142;2023-09-07T07:26:26;16.20;99.90
9329;DHT22;4703;48.748;19.142;2023-09-07T07:28:53;16.30;99.90
9329;DHT22;4703;48.748;19.142;2023-09-07T07:31:20;16.40;99.90
9329;DHT22;4703;48.748;19.142;2023-09-07T07:33:47;16.50;99.90
9329;DHT22;4703;48.748;19.142;2023-09-07T07:36:15;16.50;99.90
9329;DHT22;4703;48.748;19.142;2023-09-07T07:38:43;16.50;99.90
9329;DHT22;4703;48.748;19.142;2023-09-07T07:41:10;16.60;99.90
9329;DHT22;4703;48.748;19.142;2023-09-07T07:43:37;16.70;99.90
9329;DHT22;4703;48.748;19.142;2023-09-07T07:46:05;17.00;99.90
9329;DHT22;4703;48.748;19.142;2023-09-07T07:48:35;16.80;99.90
9329;DHT22;4703;48.748;19.142;2023-09-07T07:51:03;16.80;99.90
9329;DHT22;4703;48.748;19.142;2023-09-07T07:53:33;16.90;99.90
9329;DHT22;4703;48.748;19.142;2023-09-07T07:56:00;17.00;99.90
9329;DHT22;4703;48.748;19.142;2023-09-07T07:58:29;17.00;99.90
9329;DHT22;4703;48.748;19.142;2023-09-07T08:00:56;17.10;99.90
9329;DHT22;4703;48.748;19.142;2023-09-07T08:03:25;17.20;99.90
9329;DHT22;4703;48.748;19.142;2023-09-07T08:05:52;17.30;99.90
9329;DHT22;4703;48.748;19.142;2023-09-07T08:08:19;17.30;99.90
9329;DHT22;4703;48.748;19.142;2023-09-07T08:10:46;17.40;99.90
9329;DHT22;4703;48.748;19.142;2023-09-07T08:13:13;17.50;99.90
9329;DHT22;4703;48.748;19.142;2023-09-07T08:15:40;17.50;99.90
9329;DHT22;4703;48.748;19.142;2023-09-07T08:18:08;17.60;99.90
9329;DHT22;4703;48.748;19.142;2023-09-07T08:20:36;17.70;99.90
9329;DHT22;4703;48.748;19.142;2023-09-07T08:23:05;17.70;99.90
9329;DHT22;4703;48.748;19.142;2023-09-07T08:25:35;17.80;99.90
9329;DHT22;4703;48.748;19.142;2023-09-07T08:28:02;18.00;99.90
9329;DHT22;4703;48.748;19.142;2023-09-07T08:30:33;18.10;99.90
9329;DHT22;4703;48.748;19.142;2023-09-07T08:33:01;18.20;99.90
9329;DHT22;4703;48.748;19.142;2023-09-07T08:35:29;18.30;99.90
9329;DHT22;4703;48.748;19.142;2023-09-07T08:37:57;18.40;99.90
9329;DHT22;4703;48.748;19.142;2023-09-07T08:40:26;16.60;99.90
9329;DHT22;4703;48.748;19.142;2023-09-07T08:42:54;18.60;99.90
9329;DHT22;4703;48.748;19.142;2023-09-07T08:45:22;18.70;99.90
9329;DHT22;4703;48.748;19.142;2023-09-07T08:47:51;18.70;99.90
9329;DHT22;4703;48.748;19.142;2023-09-07T08:50:19;18.80;99.90
9329;DHT22;4703;48.748;19.142;2023-09-07T08:52:51;18.80;99.90
9329;DHT22;4703;48.748;19.142;2023-09-07T08:55:21;18.90;99.90
9329;DHT22;4703;48.748;19.142;2023-09-07T08:57:48;19.00;99.90
9329;DHT22;4703;48.748;19.142;2023-09-07T09:00:15;19.00;99.90
9329;DHT22;4703;48.748;19.142;2023-09-07T09:02:45;19.10;99.90
9329;DHT22;4703;48.748;19.142;2023-09-07T09:05:23;19.20;99.90
9329;DHT22;4703;48.748;19.142;2023-09-07T09:08:01;19.30;99.90
9329;DHT22;4703;48.748;19.142;2023-09-07T09:10:31;19.30;99.90
9329;DHT22;4703;48.748;19.142;2023-09-07T09:12:58;19.40;99.90
9329;DHT22;4703;48.748;19.142;2023-09-07T09:15:28;19.50;99.90
9329;DHT22;4703;48.748;19.142;2023-09-07T09:17:55;19.60;99.90
9329;DHT22;4703;48.748;19.142;2023-09-07T09:20:25;19.60;99.90
9329;DHT22;4703;48.748;19.142;2023-09-07T09:22:55;19.70;99.90
9329;DHT22;4703;48.748;19.142;2023-09-07T09:25:23;19.70;99.90
9329;DHT22;4703;48.748;19.142;2023-09-07T09:27:50;19.80;99.90
9329;DHT22;4703;48.748;19.142;2023-09-07T09:30:20;19.90;99.90
9329;DHT22;4703;48.748;19.142;2023-09-07T09:32:48;19.90;99.90
9329;DHT22;4703;48.748;19.142;2023-09-07T09:35:19;20.10;99.90
9329;DHT22;4703;48.748;19.142;2023-09-07T09:37:47;20.20;99.90
9329;DHT22;4703;48.748;19.142;2023-09-07T09:40:18;20.40;99.90
9329;DHT22;4703;48.748;19.142;2023-09-07T09:42:45;20.60;99.90
9329;DHT22;4703;48.748;19.142;2023-09-07T09:45:12;20.90;99.90
9329;DHT22;4703;48.748;19.142;2023-09-07T09:47:43;21.10;98.70
9329;DHT22;4703;48.748;19.142;2023-09-07T09:50:11;21.40;99.50
9329;DHT22;4703;48.748;19.142;2023-09-07T09:52:38;21.60;99.60
9329;DHT22;4703;48.748;19.142;2023-09-07T09:55:07;21.80;99.00
9329;DHT22;4703;48.748;19.142;2023-09-07T09:57:35;22.10;98.50
9329;DHT22;4703;48.748;19.142;2023-09-07T10:00:04;22.30;98.00
9329;DHT22;4703;48.748;19.142;2023-09-07T10:02:51;22.60;97.50
9329;DHT22;4703;48.748;19.142;2023-09-07T10:05:30;22.70;96.70
9329;DHT22;4703;48.748;19.142;2023-09-07T10:08:24;22.90;96.30
9329;DHT22;4703;48.748;19.142;2023-09-07T10:10:55;23.10;96.30
9329;DHT22;4703;48.748;19.142;2023-09-07T10:13:31;23.10;95.80
9329;DHT22;4703;48.748;19.142;2023-09-07T10:16:06;23.10;96.10
9329;DHT22;4703;48.748;19.142;2023-09-07T10:18:38;23.20;94.60
9329;DHT22;4703;48.748;19.142;2023-09-07T10:21:06;23.20;94.60
9329;DHT22;4703;48.748;19.142;2023-09-07T10:23:39;23.20;94.00
9329;DHT22;4703;48.748;19.142;2023-09-07T10:26:15;23.10;93.90
9329;DHT22;4703;48.748;19.142;2023-09-07T10:28:45;23.10;93.80
9329;DHT22;4703;48.748;19.142;2023-09-07T10:31:17;23.00;94.90
9329;DHT22;4703;48.748;19.142;2023-09-07T10:33:45;23.10;94.30
9329;DHT22;4703;48.748;19.142;2023-09-07T10:36:40;23.10;94.80
9329;DHT22;4703;48.748;19.142;2023-09-07T10:39:07;23.10;93.90
9329;DHT22;4703;48.748;19.142;2023-09-07T10:41:45;23.10;93.50
9329;DHT22;4703;48.748;19.142;2023-09-07T10:44:12;23.00;93.70
9329;DHT22;4703;48.748;19.142;2023-09-07T10:46:40;23.00;93.90
9329;DHT22;4703;48.748;19.142;2023-09-07T10:49:08;22.90;93.50
9329;DHT22;4703;48.748;19.142;2023-09-07T10:51:43;22.90;93.40
9329;DHT22;4703;48.748;19.142;2023-09-07T10:54:23;22.90;93.50
9329;DHT22;4703;48.748;19.142;2023-09-07T10:56:52;22.90;93.40
9329;DHT22;4703;48.748;19.142;2023-09-07T10:59:20;23.00;93.40
9329;DHT22;4703;48.748;19.142;2023-09-07T11:01:47;23.00;92.90
9329;DHT22;4703;48.748;19.142;2023-09-07T11:04:15;23.00;92.80
9329;DHT22;4703;48.748;19.142;2023-09-07T11:06:44;23.10;92.80
9329;DHT22;4703;48.748;19.142;2023-09-07T11:09:11;23.20;93.10
9329;DHT22;4703;48.748;19.142;2023-09-07T11:11:39;23.20;93.30
9329;DHT22;4703;48.748;19.142;2023-09-07T11:14:06;23.30;92.70
9329;DHT22;4703;48.748;19.142;2023-09-07T11:16:33;23.50;92.70
9329;DHT22;4703;48.748;19.142;2023-09-07T11:19:04;23.60;92.40
9329;DHT22;4703;48.748;19.142;2023-09-07T11:21:34;23.80;91.70
9329;DHT22;4703;48.748;19.142;2023-09-07T11:24:02;23.90;91.80
9329;DHT22;4703;48.748;19.142;2023-09-07T11:26:42;23.90;90.50
9329;DHT22;4703;48.748;19.142;2023-09-07T11:29:09;24.00;89.60
9329;DHT22;4703;48.748;19.142;2023-09-07T11:31:36;24.00;90.80
9329;DHT22;4703;48.748;19.142;2023-09-07T11:34:09;24.10;89.80
9329;DHT22;4703;48.748;19.142;2023-09-07T11:36:37;24.10;88.80
9329;DHT22;4703;48.748;19.142;2023-09-07T11:39:04;24.30;88.70
9329;DHT22;4703;48.748;19.142;2023-09-07T11:41:42;24.50;88.80
9329;DHT22;4703;48.748;19.142;2023-09-07T11:44:10;24.80;88.70
9329;DHT22;4703;48.748;19.142;2023-09-07T11:46:38;25.10;88.40
9329;DHT22;4703;48.748;19.142;2023-09-07T11:49:05;25.30;86.50
9329;DHT22;4703;48.748;19.142;2023-09-07T11:51:33;25.30;87.20
9329;DHT22;4703;48.748;19.142;2023-09-07T11:54:02;25.40;86.40
9329;DHT22;4703;48.748;19.142;2023-09-07T11:56:29;25.50;86.30
9329;DHT22;4703;48.748;19.142;2023-09-07T11:58:57;25.50;88.70
9329;DHT22;4703;48.748;19.142;2023-09-07T12:01:24;25.60;87.60
9329;DHT22;4703;48.748;19.142;2023-09-07T12:03:53;25.60;88.80
9329;DHT22;4703;48.748;19.142;2023-09-07T12:06:20;25.70;89.20
9329;DHT22;4703;48.748;19.142;2023-09-07T12:09:00;25.60;89.50
9329;DHT22;4703;48.748;19.142;2023-09-07T12:11:31;25.60;84.00
9329;DHT22;4703;48.748;19.142;2023-09-07T12:13:59;25.60;83.50
9329;DHT22;4703;48.748;19.142;2023-09-07T12:16:27;25.60;85.30
9329;DHT22;4703;48.748;19.142;2023-09-07T12:18:55;25.60;84.30
9329;DHT22;4703;48.748;19.142;2023-09-07T12:21:22;25.50;85.20
9329;DHT22;4703;48.748;19.142;2023-09-07T12:23:49;25.40;83.70
9329;DHT22;4703;48.748;19.142;2023-09-07T12:26:16;25.40;85.30
9329;DHT22;4703;48.748;19.142;2023-09-07T12:28:43;25.40;84.60
9329;DHT22;4703;48.748;19.142;2023-09-07T12:31:11;25.40;85.40
9329;DHT22;4703;48.748;19.142;2023-09-07T12:33:39;25.40;84.00
9329;DHT22;4703;48.748;19.142;2023-09-07T12:36:06;25.40;85.20
9329;DHT22;4703;48.748;19.142;2023-09-07T12:38:37;25.40;83.50
9329;DHT22;4703;48.748;19.142;2023-09-07T12:41:05;25.50;82.40
9329;DHT22;4703;48.748;19.142;2023-09-07T12:43:34;25.50;87.60
9329;DHT22;4703;48.748;19.142;2023-09-07T12:46:02;25.40;87.80
9329;DHT22;4703;48.748;19.142;2023-09-07T12:48:30;25.50;84.40
9329;DHT22;4703;48.748;19.142;2023-09-07T12:50:57;25.50;84.10
9329;DHT22;4703;48.748;19.142;2023-09-07T12:53:24;25.60;83.80
9329;DHT22;4703;48.748;19.142;2023-09-07T12:55:53;25.60;84.60
9329;DHT22;4703;48.748;19.142;2023-09-07T12:58:21;25.60;83.60
9329;DHT22;4703;48.748;19.142;2023-09-07T13:00:47;25.50;84.30
9329;DHT22;4703;48.748;19.142;2023-09-07T13:03:15;25.50;85.90
9329;DHT22;4703;48.748;19.142;2023-09-07T13:05:43;25.40;86.30
9329;DHT22;4703;48.748;19.142;2023-09-07T13:08:10;25.40;82.30
9329;DHT22;4703;48.748;19.142;2023-09-07T13:10:37;25.40;81.10
9329;DHT22;4703;48.748;19.142;2023-09-07T13:13:05;25.30;83.00
9329;DHT22;4703;48.748;19.142;2023-09-07T13:15:33;25.30;82.80
9329;DHT22;4703;48.748;19.142;2023-09-07T13:18:00;25.40;82.40
9329;DHT22;4703;48.748;19.142;2023-09-07T13:20:28;25.40;84.30
9329;DHT22;4703;48.748;19.142;2023-09-07T13:22:55;25.50;80.60
9329;DHT22;4703;48.748;19.142;2023-09-07T13:25:22;25.50;81.40
9329;DHT22;4703;48.748;19.142;2023-09-07T13:27:49;25.60;82.30
9329;DHT22;4703;48.748;19.142;2023-09-07T13:30:16;25.50;82.70
9329;DHT22;4703;48.748;19.142;2023-09-07T13:32:43;25.60;81.20
9329;DHT22;4703;48.748;19.142;2023-09-07T13:35:12;25.50;81.80
9329;DHT22;4703;48.748;19.142;2023-09-07T13:37:39;25.50;82.30
9329;DHT22;4703;48.748;19.142;2023-09-07T13:40:06;25.50;83.20
9329;DHT22;4703;48.748;19.142;2023-09-07T13:42:34;25.60;80.60
9329;DHT22;4703;48.748;19.142;2023-09-07T13:45:01;25.60;82.00
9329;DHT22;4703;48.748;19.142;2023-09-07T13:47:29;25.60;80.00
9329;DHT22;4703;48.748;19.142;2023-09-07T13:49:56;25.60;80.70
9329;DHT22;4703;48.748;19.142;2023-09-07T13:52:23;25.60;81.10
9329;DHT22;4703;48.748;19.142;2023-09-07T13:54:50;25.60;80.10
9329;DHT22;4703;48.748;19.142;2023-09-07T13:57:17;25.70;81.60
9329;DHT22;4703;48.748;19.142;2023-09-07T13:59:44;25.70;82.00
9329;DHT22;4703;48.748;19.142;2023-09-07T14:02:11;25.70;79.80
9329;DHT22;4703;48.748;19.142;2023-09-07T14:04:38;25.80;78.20
9329;DHT22;4703;48.748;19.142;2023-09-07T14:07:04;25.80;78.30
9329;DHT22;4703;48.748;19.142;2023-09-07T14:09:32;25.90;75.70
9329;DHT22;4703;48.748;19.142;2023-09-07T14:12:00;26.00;74.50
9329;DHT22;4703;48.748;19.142;2023-09-07T14:14:27;25.90;76.40
9329;DHT22;4703;48.748;19.142;2023-09-07T14:16:54;25.90;76.10
9329;DHT22;4703;48.748;19.142;2023-09-07T14:19:23;25.80;76.60
9329;DHT22;4703;48.748;19.142;2023-09-07T14:21:53;25.80;76.10
9329;DHT22;4703;48.748;19.142;2023-09-07T14:24:20;25.80;75.40
9329;DHT22;4703;48.748;19.142;2023-09-07T14:26:47;25.80;75.20
9329;DHT22;4703;48.748;19.142;2023-09-07T14:29:14;25.80;73.30
9329;DHT22;4703;48.748;19.142;2023-09-07T14:31:41;25.80;73.60
9329;DHT22;4703;48.748;19.142;2023-09-07T14:34:10;25.80;75.40
9329;DHT22;4703;48.748;19.142;2023-09-07T14:36:38;25.70;74.80
9329;DHT22;4703;48.748;19.142;2023-09-07T14:39:06;25.80;73.40
9329;DHT22;4703;48.748;19.142;2023-09-07T14:41:36;25.80;70.20
9329;DHT22;4703;48.748;19.142;2023-09-07T14:44:03;25.80;70.10
9329;DHT22;4703;48.748;19.142;2023-09-07T14:46:30;26.00;64.40
9329;DHT22;4703;48.748;19.142;2023-09-07T14:48:57;26.10;66.20
9329;DHT22;4703;48.748;19.142;2023-09-07T14:51:26;26.10;64.90
9329;DHT22;4703;48.748;19.142;2023-09-07T14:53:54;26.20;64.70
9329;DHT22;4703;48.748;19.142;2023-09-07T14:56:21;26.20;64.40
9329;DHT22;4703;48.748;19.142;2023-09-07T14:58:48;26.20;65.80
9329;DHT22;4703;48.748;19.142;2023-09-07T15:01:15;26.30;62.70
9329;DHT22;4703;48.748;19.142;2023-09-07T15:03:42;26.40;64.20
9329;DHT22;4703;48.748;19.142;2023-09-07T15:06:09;26.40;65.70
9329;DHT22;4703;48.748;19.142;2023-09-07T15:08:39;26.50;63.60
9329;DHT22;4703;48.748;19.142;2023-09-07T15:11:06;26.70;62.70
9329;DHT22;4703;48.748;19.142;2023-09-07T15:13:34;27.00;62.80
9329;DHT22;4703;48.748;19.142;2023-09-07T15:16:01;27.30;61.20
9329;DHT22;4703;48.748;19.142;2023-09-07T15:18:29;27.80;60.60
9329;DHT22;4703;48.748;19.142;2023-09-07T15:20:56;28.20;60.60
9329;DHT22;4703;48.748;19.142;2023-09-07T15:23:23;28.60;60.00
9329;DHT22;4703;48.748;19.142;2023-09-07T15:25:50;29.00;60.30
9329;DHT22;4703;48.748;19.142;2023-09-07T15:28:18;29.50;58.90
9329;DHT22;4703;48.748;19.142;2023-09-07T15:30:45;29.90;54.40
9329;DHT22;4703;48.748;19.142;2023-09-07T15:33:12;30.10;53.80
9329;DHT22;4703;48.748;19.142;2023-09-07T15:35:40;30.30;55.00
9329;DHT22;4703;48.748;19.142;2023-09-07T15:38:07;30.60;54.00
9329;DHT22;4703;48.748;19.142;2023-09-07T15:40:34;30.90;52.00
9329;DHT22;4703;48.748;19.142;2023-09-07T15:43:01;31.20;51.80
9329;DHT22;4703;48.748;19.142;2023-09-07T15:45:28;31.60;51.00
9329;DHT22;4703;48.748;19.142;2023-09-07T15:47:55;32.00;50.40
9329;DHT22;4703;48.748;19.142;2023-09-07T15:50:23;32.40;50.00
9329;DHT22;4703;48.748;19.142;2023-09-07T15:52:50;32.60;47.90